Terminal Aerodrome Forecast
Issued by NWS Wilmington, OH

Home | Current Version | Previous Version | Text Only | Print | Product List | Glossary On
Versions: 1 2 3 4 5 6 7 8 9 10 11 12 13 14 15 16 17 18 19 20 21 22 23 24 25
000
FTUS41 KILN 292300 RRA
TAFCVG
TAF
KCVG 292343Z 3000/3106 21010KT P6SM -SHRA BKN050 OVC100
     FM300500 26011KT P6SM SCT025 BKN040
     FM300800 29010KT P6SM SCT022
      TEMPO 3010/3012 BKN022
     FM301800 27010KT P6SM SCT040
     FM310000 22006KT P6SM BKN150=

USA.gov is the U.S. government's official web portal to all federal, state and local government web resources and services.